Time;durP1;ratioP1;P1;durP2;ratioP2;P2;SDS_P1;SDS_P2;PMS_P1;PMS_P2;Temp;Humidity;BMP_temperature;BMP_pressure;BME280_temperature;BME280_humidity;BME280_pressure;Samples;Min_cycle;Max_cycle;Signal;HPM_P1;HPM_P2
2023/06/09 00:01:14;;;;;;;12.85;7.30;;;;;;;;;;4990349;28;20348;-61
2023/06/09 00:03:39;;;;;;;11.68;7.30;;;;;;;;;;4999255;28;20457;-61
2023/06/09 00:06:08;;;;;;;19.23;7.75;;;;;;;;;;5004035;28;20435;-61
2023/06/09 00:08:35;;;;;;;13.13;7.65;;;;;;;;;;5008428;28;20505;-61
2023/06/09 00:11:00;;;;;;;12.60;7.70;;;;;;;;;;5006689;28;20057;-61
2023/06/09 00:13:26;;;;;;;12.85;7.80;;;;;;;;;;5015921;28;20068;-62
2023/06/09 00:15:51;;;;;;;15.32;8.00;;;;;;;;;;4994420;28;20391;-61
2023/06/09 00:18:16;;;;;;;13.18;7.55;;;;;;;;;;4999882;28;20479;-61
2023/06/09 00:20:42;;;;;;;16.05;7.40;;;;;;;;;;5009274;28;20120;-61
2023/06/09 00:23:08;;;;;;;12.40;7.30;;;;;;;;;;5011776;28;20034;-61
2023/06/09 00:25:35;;;;;;;14.95;7.47;;;;;;;;;;5003206;28;20034;-62
2023/06/09 00:28:01;;;;;;;18.05;7.90;;;;;;;;;;5012142;28;20033;-61
2023/06/09 00:30:26;;;;;;;13.10;7.28;;;;;;;;;;4999403;28;20114;-61
2023/06/09 00:32:52;;;;;;;12.57;6.75;;;;;;;;;;5003929;28;20161;-62
2023/06/09 00:35:17;;;;;;;13.00;7.13;;;;;;;;;;5009149;28;20179;-61
2023/06/09 00:37:44;;;;;;;13.65;7.05;;;;;;;;;;5000193;28;20455;-61
2023/06/09 00:40:10;;;;;;;13.35;6.88;;;;;;;;;;5004007;28;20056;-61
2023/06/09 00:42:36;;;;;;;11.93;6.50;;;;;;;;;;5004514;28;20156;-61
2023/06/09 00:45:01;;;;;;;11.93;6.57;;;;;;;;;;5008950;28;20109;-62
2023/06/09 00:47:27;;;;;;;11.48;6.68;;;;;;;;;;5000026;28;20387;-61
2023/06/09 00:49:53;;;;;;;12.35;6.75;;;;;;;;;;4997212;28;20057;-61
2023/06/09 00:52:18;;;;;;;9.43;6.40;;;;;;;;;;5007512;28;20041;-61
2023/06/09 00:54:45;;;;;;;11.60;6.63;;;;;;;;;;5015117;28;20033;-61
2023/06/09 00:57:11;;;;;;;13.13;7.43;;;;;;;;;;5010512;28;20030;-60
2023/06/09 00:59:37;;;;;;;10.68;6.63;;;;;;;;;;5009986;28;20109;-62
2023/06/09 01:02:04;;;;;;;14.02;7.10;;;;;;;;;;5009344;28;20137;-62
2023/06/09 01:04:32;;;;;;;15.98;6.88;;;;;;;;;;5010386;28;20580;-61
2023/06/09 01:07:38;;;;;;;13.20;7.65;;;;;;;;;;4990549;28;20037;-61
2023/06/09 01:10:12;;;;;;;10.98;6.63;;;;;;;;;;4998456;28;20120;-61
2023/06/09 01:13:03;;;;;;;13.05;6.43;;;;;;;;;;5018231;28;20030;-63
2023/06/09 01:15:36;;;;;;;10.18;6.72;;;;;;;;;;5013198;28;20037;-60
2023/06/09 01:18:04;;;;;;;11.65;6.90;;;;;;;;;;5012749;28;20034;-61
2023/06/09 01:20:56;;;;;;;11.82;6.45;;;;;;;;;;5001853;28;20156;-60
2023/06/09 01:23:44;;;;;;;12.25;6.82;;;;;;;;;;5014561;28;20057;-60
2023/06/09 01:26:11;;;;;;;11.80;6.78;;;;;;;;;;5016878;28;20522;-62
2023/06/09 01:28:38;;;;;;;13.10;6.53;;;;;;;;;;5033376;28;20070;-60
2023/06/09 01:31:04;;;;;;;12.63;6.28;;;;;;;;;;5016638;28;20030;-60
2023/06/09 01:33:31;;;;;;;12.30;6.57;;;;;;;;;;5014174;28;20089;-62
2023/06/09 01:35:57;;;;;;;12.43;6.22;;;;;;;;;;5016121;28;20488;-60
2023/06/09 01:38:24;;;;;;;11.25;6.30;;;;;;;;;;5006300;28;20033;-60
2023/06/09 01:40:50;;;;;;;11.88;6.97;;;;;;;;;;5013373;28;20088;-62
2023/06/09 01:43:15;;;;;;;9.85;6.38;;;;;;;;;;5013697;28;20034;-60
2023/06/09 01:45:41;;;;;;;14.85;6.85;;;;;;;;;;5003506;28;20108;-61
2023/06/09 01:48:22;;;;;;;13.02;6.85;;;;;;;;;;5012945;28;20034;-63
2023/06/09 01:50:55;;;;;;;16.27;6.85;;;;;;;;;;5008403;28;20031;-61
2023/06/09 01:53:32;;;;;;;11.80;6.25;;;;;;;;;;5030757;28;20064;-63
2023/06/09 01:56:21;;;;;;;13.00;6.88;;;;;;;;;;5023539;28;20035;-62
2023/06/09 01:58:51;;;;;;;12.40;6.63;;;;;;;;;;5014044;28;20030;-61
2023/06/09 02:01:17;;;;;;;10.95;6.65;;;;;;;;;;5010578;28;20042;-60
2023/06/09 02:03:44;;;;;;;13.15;6.63;;;;;;;;;;5016240;28;20564;-61
2023/06/09 02:06:15;;;;;;;10.77;6.63;;;;;;;;;;5017150;28;20061;-62
2023/06/09 02:08:42;;;;;;;12.00;7.50;;;;;;;;;;5005631;28;20120;-61
2023/06/09 02:11:10;;;;;;;13.30;7.22;;;;;;;;;;5010814;28;20056;-61
2023/06/09 02:13:35;;;;;;;10.98;6.45;;;;;;;;;;5002282;28;20037;-62
2023/06/09 02:16:00;;;;;;;11.23;6.85;;;;;;;;;;4994673;28;20038;-61
2023/06/09 02:18:26;;;;;;;16.65;7.60;;;;;;;;;;5009998;28;20439;-61
2023/06/09 02:20:52;;;;;;;12.18;7.55;;;;;;;;;;5013621;28;20046;-61
2023/06/09 02:23:20;;;;;;;12.50;6.90;;;;;;;;;;5012952;28;20033;-60
2023/06/09 02:25:46;;;;;;;16.58;7.28;;;;;;;;;;5007053;28;20040;-61
2023/06/09 02:28:12;;;;;;;14.80;7.63;;;;;;;;;;5019028;28;20045;-61
2023/06/09 02:30:37;;;;;;;14.23;6.95;;;;;;;;;;4995074;28;20247;-61
2023/06/09 02:33:03;;;;;;;12.43;7.00;;;;;;;;;;4998574;28;20025;-62
2023/06/09 02:35:29;;;;;;;11.93;6.90;;;;;;;;;;5009547;28;20092;-62
2023/06/09 02:37:57;;;;;;;13.13;7.20;;;;;;;;;;5013260;28;20041;-61
2023/06/09 02:40:23;;;;;;;12.32;6.82;;;;;;;;;;5009804;28;20092;-61
2023/06/09 02:42:49;;;;;;;13.82;7.22;;;;;;;;;;5013794;28;20021;-62
2023/06/09 02:45:14;;;;;;;19.15;7.18;;;;;;;;;;5011346;28;20352;-62
2023/06/09 02:47:40;;;;;;;12.10;7.15;;;;;;;;;;5008099;28;20041;-61
2023/06/09 02:50:07;;;;;;;14.48;7.35;;;;;;;;;;5007369;28;20121;-61
2023/06/09 02:52:32;;;;;;;14.65;7.20;;;;;;;;;;5011868;28;20121;-61
2023/06/09 02:54:58;;;;;;;13.93;6.97;;;;;;;;;;5011483;28;20122;-61
2023/06/09 02:57:27;;;;;;;15.95;6.90;;;;;;;;;;5012878;28;20465;-61
2023/06/09 02:59:53;;;;;;;15.00;7.20;;;;;;;;;;5011869;28;20470;-61
2023/06/09 03:02:19;;;;;;;19.38;7.00;;;;;;;;;;5018324;28;20050;-60
2023/06/09 03:04:45;;;;;;;13.32;7.40;;;;;;;;;;5009074;28;20030;-61
2023/06/09 03:07:13;;;;;;;13.07;6.90;;;;;;;;;;4996647;28;20450;-61
2023/06/09 03:09:39;;;;;;;14.15;7.15;;;;;;;;;;5032329;28;20096;-61
2023/06/09 03:12:06;;;;;;;14.95;7.07;;;;;;;;;;5030761;28;20030;-60
2023/06/09 03:14:32;;;;;;;12.23;6.97;;;;;;;;;;5007263;28;20037;-61
2023/06/09 03:16:58;;;;;;;15.85;7.28;;;;;;;;;;4994973;28;20371;-61
2023/06/09 03:19:24;;;;;;;11.50;7.05;;;;;;;;;;5011254;28;20312;-60
2023/06/09 03:21:52;;;;;;;14.70;7.07;;;;;;;;;;5008650;28;20041;-60
2023/06/09 03:24:19;;;;;;;12.70;7.20;;;;;;;;;;5005072;28;20049;-61
2023/06/09 03:26:44;;;;;;;19.02;7.82;;;;;;;;;;5005433;28;20120;-61
2023/06/09 03:29:10;;;;;;;13.55;7.43;;;;;;;;;;5002596;28;20077;-60
2023/06/09 03:31:35;;;;;;;14.48;7.45;;;;;;;;;;5010196;28;20030;-61
2023/06/09 03:34:01;;;;;;;12.82;7.43;;;;;;;;;;5009678;28;20029;-61
2023/06/09 03:36:27;;;;;;;14.75;7.40;;;;;;;;;;5006835;28;20030;-61
2023/06/09 03:38:54;;;;;;;12.60;7.18;;;;;;;;;;4997643;28;20161;-59
2023/06/09 03:41:19;;;;;;;13.55;7.25;;;;;;;;;;5031203;28;20036;-61
2023/06/09 03:43:45;;;;;;;13.50;7.00;;;;;;;;;;5031912;28;20025;-63
2023/06/09 03:46:10;;;;;;;14.25;7.78;;;;;;;;;;5013727;28;20040;-62
2023/06/09 03:48:36;;;;;;;15.35;7.70;;;;;;;;;;5031626;28;20065;-61
2023/06/09 03:51:01;;;;;;;12.20;7.40;;;;;;;;;;5032595;28;20120;-62
2023/06/09 03:53:26;;;;;;;15.02;8.15;;;;;;;;;;5031455;28;20409;-61
2023/06/09 03:55:52;;;;;;;14.48;7.70;;;;;;;;;;5019535;28;20033;-61
2023/06/09 03:58:17;;;;;;;13.43;7.72;;;;;;;;;;5007232;28;20076;-61
2023/06/09 04:00:43;;;;;;;12.50;7.55;;;;;;;;;;5018653;28;20032;-61
2023/06/09 04:03:08;;;;;;;15.93;7.70;;;;;;;;;;5021741;28;20026;-61
2023/06/09 04:05:34;;;;;;;13.57;8.00;;;;;;;;;;5009952;28;20030;-62
2023/06/09 04:08:00;;;;;;;14.20;8.30;;;;;;;;;;5007270;28;20486;-61
2023/06/09 04:10:25;;;;;;;14.20;7.97;;;;;;;;;;5006317;28;20034;-61
2023/06/09 04:12:50;;;;;;;13.43;7.93;;;;;;;;;;5023564;28;20025;-61
2023/06/09 04:15:17;;;;;;;15.70;8.07;;;;;;;;;;5021259;28;20111;-61
2023/06/09 04:17:43;;;;;;;14.43;8.18;;;;;;;;;;4997946;28;20207;-62
2023/06/09 04:20:09;;;;;;;15.23;8.40;;;;;;;;;;4998829;28;20494;-62
2023/06/09 04:22:35;;;;;;;11.93;8.25;;;;;;;;;;5014161;28;20156;-61
2023/06/09 04:25:04;;;;;;;14.52;8.30;;;;;;;;;;5007234;28;20140;-62
2023/06/09 04:27:30;;;;;;;12.48;8.27;;;;;;;;;;5010105;28;20029;-62
2023/06/09 04:29:57;;;;;;;11.77;8.02;;;;;;;;;;5012155;28;20076;-62
2023/06/09 04:32:23;;;;;;;12.57;8.38;;;;;;;;;;5008579;28;20042;-61
2023/06/09 04:34:49;;;;;;;14.30;8.15;;;;;;;;;;5006593;28;20158;-62
2023/06/09 04:37:14;;;;;;;13.32;8.18;;;;;;;;;;5011575;28;20173;-62
2023/06/09 04:39:45;;;;;;;13.40;8.82;;;;;;;;;;5006735;28;20183;-62
2023/06/09 04:42:11;;;;;;;;;;;;;;;;;;5021646;28;20246;-62
2023/06/09 04:44:36;;;;;;;17.60;9.30;;;;;;;;;;4996460;28;20390;-62
2023/06/09 04:47:02;;;;;;;15.63;9.02;;;;;;;;;;5016960;28;20046;-62
2023/06/09 04:49:30;;;;;;;12.57;8.30;;;;;;;;;;5008435;28;20502;-60
2023/06/09 04:51:56;;;;;;;13.50;8.85;;;;;;;;;;5008058;28;20041;-62
2023/06/09 04:54:28;;;;;;;14.15;9.18;;;;;;;;;;5006449;28;20032;-61
2023/06/09 04:56:57;;;;;;;13.18;9.50;;;;;;;;;;5000021;28;20033;-62
2023/06/09 04:59:25;;;;;;;14.30;9.98;;;;;;;;;;5010794;28;20034;-62
2023/06/09 05:01:52;;;;;;;16.35;9.85;;;;;;;;;;5010001;28;20034;-61
2023/06/09 05:04:17;;;;;;;16.48;10.60;;;;;;;;;;5003450;28;20033;-60
2023/06/09 05:06:43;;;;;;;15.13;9.57;;;;;;;;;;4997778;28;20035;-62
2023/06/09 05:09:08;;;;;;;13.73;9.80;;;;;;;;;;5010157;28;20034;-62
2023/06/09 05:11:34;;;;;;;16.65;10.48;;;;;;;;;;5009066;28;20386;-61
2023/06/09 05:14:00;;;;;;;13.02;9.35;;;;;;;;;;5007698;28;20030;-61
2023/06/09 05:16:27;;;;;;;14.38;9.75;;;;;;;;;;4990418;28;20041;-60
2023/06/09 05:18:52;;;;;;;14.15;10.10;;;;;;;;;;5014525;28;20043;-62
2023/06/09 05:21:18;;;;;;;13.57;10.18;;;;;;;;;;5011157;28;20112;-62
2023/06/09 05:23:43;;;;;;;15.23;10.80;;;;;;;;;;5009208;28;20029;-62
2023/06/09 05:26:09;;;;;;;14.23;10.65;;;;;;;;;;5011509;28;20062;-62
2023/06/09 05:28:34;;;;;;;17.10;10.65;;;;;;;;;;5010706;28;20525;-61
2023/06/09 05:31:01;;;;;;;13.00;10.70;;;;;;;;;;5022354;28;20466;-61
2023/06/09 05:33:26;;;;;;;15.02;9.98;;;;;;;;;;5027318;28;20367;-60
2023/06/09 05:35:52;;;;;;;14.82;9.85;;;;;;;;;;5025104;28;20037;-61
2023/06/09 05:38:19;;;;;;;14.70;10.13;;;;;;;;;;5014941;28;20157;-61
2023/06/09 05:40:45;;;;;;;16.02;10.65;;;;;;;;;;5010735;28;20037;-61
2023/06/09 05:43:10;;;;;;;14.13;10.60;;;;;;;;;;5006866;28;20030;-61
2023/06/09 05:45:36;;;;;;;14.95;10.23;;;;;;;;;;4996432;28;20029;-61
2023/06/09 05:48:01;;;;;;;15.30;10.85;;;;;;;;;;5031066;28;20402;-61
2023/06/09 05:50:26;;;;;;;19.00;10.73;;;;;;;;;;5013944;28;20033;-61
2023/06/09 05:52:52;;;;;;;13.82;10.95;;;;;;;;;;5010246;28;20033;-62
2023/06/09 05:55:17;;;;;;;12.05;10.30;;;;;;;;;;5015979;28;20041;-61
2023/06/09 05:57:45;;;;;;;16.30;10.57;;;;;;;;;;5033575;28;20042;-61
2023/06/09 06:00:11;;;;;;;14.73;10.70;;;;;;;;;;5032976;28;20038;-61
2023/06/09 06:02:39;;;;;;;15.82;10.45;;;;;;;;;;5031823;28;20039;-53
2023/06/09 06:05:08;;;;;;;14.20;10.68;;;;;;;;;;5011120;28;20053;-51
2023/06/09 06:07:37;;;;;;;13.13;10.18;;;;;;;;;;4992954;28;20513;-53
2023/06/09 06:10:06;;;;;;;15.10;10.43;;;;;;;;;;4994910;28;20034;-50
2023/06/09 06:12:34;;;;;;;14.43;10.63;;;;;;;;;;5009399;28;20069;-56
2023/06/09 06:15:00;;;;;;;14.45;10.98;;;;;;;;;;5014547;28;20022;-52
2023/06/09 06:17:25;;;;;;;15.23;10.75;;;;;;;;;;5018913;28;20029;-48
2023/06/09 06:19:51;;;;;;;14.15;10.70;;;;;;;;;;5033435;28;20347;-50
2023/06/09 06:22:16;;;;;;;18.00;10.48;;;;;;;;;;5033972;28;20030;-49
2023/06/09 06:24:42;;;;;;;17.55;11.13;;;;;;;;;;5033287;28;20037;-53
2023/06/09 06:27:07;;;;;;;12.95;9.80;;;;;;;;;;5032527;28;20068;-50
2023/06/09 06:29:33;;;;;;;12.57;10.35;;;;;;;;;;5007090;28;20467;-53
2023/06/09 06:31:59;;;;;;;18.10;11.30;;;;;;;;;;4994605;28;20038;-50
2023/06/09 06:34:25;;;;;;;14.27;10.55;;;;;;;;;;4994553;28;20042;-50
2023/06/09 06:36:51;;;;;;;14.07;10.93;;;;;;;;;;4993482;28;20030;-48
2023/06/09 06:39:16;;;;;;;14.55;10.85;;;;;;;;;;4993988;28;20081;-51
2023/06/09 06:41:41;;;;;;;14.15;11.13;;;;;;;;;;4993502;28;20026;-53
2023/06/09 06:44:07;;;;;;;12.70;10.15;;;;;;;;;;4994187;28;20157;-53
2023/06/09 06:46:32;;;;;;;12.80;10.30;;;;;;;;;;5009486;28;20387;-49
2023/06/09 06:48:57;;;;;;;12.07;10.77;;;;;;;;;;5013374;28;20026;-54
2023/06/09 06:51:23;;;;;;;14.38;10.98;;;;;;;;;;5021024;28;20367;-52
2023/06/09 06:53:48;;;;;;;12.07;10.02;;;;;;;;;;5032618;28;20029;-51
2023/06/09 06:56:14;;;;;;;13.75;10.48;;;;;;;;;;4998738;28;20439;-54
2023/06/09 06:58:40;;;;;;;16.50;10.77;;;;;;;;;;5008417;28;20038;-54
2023/06/09 07:01:05;;;;;;;12.02;10.43;;;;;;;;;;4994211;28;20537;-53
2023/06/09 07:03:33;;;;;;;13.65;10.27;;;;;;;;;;5008516;28;20438;-54
2023/06/09 07:05:58;;;;;;;12.15;10.55;;;;;;;;;;5012803;28;20068;-53
2023/06/09 07:08:24;;;;;;;14.40;10.60;;;;;;;;;;5006722;28;20448;-51
2023/06/09 07:10:49;;;;;;;13.20;10.77;;;;;;;;;;4993151;28;20030;-52
2023/06/09 07:13:15;;;;;;;12.88;10.05;;;;;;;;;;5003922;28;20025;-53
2023/06/09 07:15:40;;;;;;;13.93;9.90;;;;;;;;;;5032761;28;20377;-53
2023/06/09 07:18:06;;;;;;;11.13;9.38;;;;;;;;;;5010904;28;20041;-51
2023/06/09 07:20:32;;;;;;;14.27;10.88;;;;;;;;;;5009954;28;20026;-54
2023/06/09 07:22:58;;;;;;;12.00;10.27;;;;;;;;;;5018981;28;20069;-54
2023/06/09 07:25:23;;;;;;;12.00;10.15;;;;;;;;;;5019066;28;20037;-54
2023/06/09 07:27:48;;;;;;;13.07;10.10;;;;;;;;;;5004106;28;20041;-52
2023/06/09 07:30:14;;;;;;;13.80;10.05;;;;;;;;;;5006211;28;20093;-53
2023/06/09 07:32:40;;;;;;;11.93;9.70;;;;;;;;;;4992221;28;20117;-52
2023/06/09 07:35:05;;;;;;;14.50;10.45;;;;;;;;;;4993719;28;20027;-52
2023/06/09 07:37:31;;;;;;;12.43;10.23;;;;;;;;;;5006853;28;20108;-53
2023/06/09 07:39:57;;;;;;;13.98;9.45;;;;;;;;;;5014847;28;20054;-53
2023/06/09 07:42:22;;;;;;;12.15;9.70;;;;;;;;;;4993135;28;20471;-53
2023/06/09 07:44:47;;;;;;;12.63;9.40;;;;;;;;;;4992332;28;20475;-52
2023/06/09 07:47:13;;;;;;;10.05;8.90;;;;;;;;;;4995801;28;20041;-51
2023/06/09 07:49:38;;;;;;;12.68;9.63;;;;;;;;;;5023004;28;20034;-54
2023/06/09 07:52:04;;;;;;;11.75;9.18;;;;;;;;;;5017959;28;20034;-54
2023/06/09 07:54:29;;;;;;;11.88;9.88;;;;;;;;;;5008898;28;20471;-53
2023/06/09 07:56:55;;;;;;;13.52;9.82;;;;;;;;;;4992051;28;20088;-56
2023/06/09 07:59:21;;;;;;;11.90;8.88;;;;;;;;;;5000784;28;20034;-52
2023/06/09 08:01:46;;;;;;;10.93;9.15;;;;;;;;;;5011544;28;20034;-55
2023/06/09 08:04:13;;;;;;;10.77;8.90;;;;;;;;;;5012390;28;20036;-56
2023/06/09 08:06:38;;;;;;;10.77;8.50;;;;;;;;;;5011592;28;20088;-56
2023/06/09 08:09:04;;;;;;;12.02;9.05;;;;;;;;;;5017580;28;20425;-54
2023/06/09 08:11:30;;;;;;;10.30;8.00;;;;;;;;;;5012277;28;20072;-53
2023/06/09 08:13:55;;;;;;;9.52;7.70;;;;;;;;;;5010950;28;20054;-54
2023/06/09 08:16:21;;;;;;;12.90;8.30;;;;;;;;;;5012083;28;20473;-57
2023/06/09 08:18:46;;;;;;;11.20;8.50;;;;;;;;;;5021766;28;20033;-51
2023/06/09 08:21:12;;;;;;;10.95;8.50;;;;;;;;;;5029904;28;20037;-56
2023/06/09 08:23:42;;;;;;;11.35;8.55;;;;;;;;;;5031405;28;20387;-56
2023/06/09 08:26:07;;;;;;;11.02;8.30;;;;;;;;;;5032129;28;20108;-51
2023/06/09 08:28:33;;;;;;;10.20;8.07;;;;;;;;;;5014657;28;20467;-51
2023/06/09 08:30:58;;;;;;;8.90;7.57;;;;;;;;;;5023661;28;20127;-51
2023/06/09 08:33:26;;;;;;;10.43;7.93;;;;;;;;;;5030560;28;20041;-49
2023/06/09 08:35:51;;;;;;;9.82;7.95;;;;;;;;;;5030966;28;20033;-50
2023/06/09 08:38:16;;;;;;;10.18;7.93;;;;;;;;;;5031798;28;20022;-54
2023/06/09 08:40:42;;;;;;;11.55;7.55;;;;;;;;;;5023502;28;20066;-55
2023/06/09 08:43:07;;;;;;;9.07;7.00;;;;;;;;;;5021436;28;20037;-55
2023/06/09 08:45:34;;;;;;;8.68;6.63;;;;;;;;;;5014173;28;20042;-53
2023/06/09 08:48:00;;;;;;;8.68;6.70;;;;;;;;;;5009458;28;20084;-53
2023/06/09 08:50:30;;;;;;;9.65;7.10;;;;;;;;;;5026520;28;20033;-55
2023/06/09 08:52:56;;;;;;;8.98;7.35;;;;;;;;;;5030491;28;20355;-51
2023/06/09 08:55:22;;;;;;;12.90;6.80;;;;;;;;;;5027710;28;20458;-53
2023/06/09 08:57:49;;;;;;;9.35;6.95;;;;;;;;;;5028725;28;20481;-49
2023/06/09 09:00:15;;;;;;;10.20;7.03;;;;;;;;;;5011763;28;20113;-53
2023/06/09 09:02:43;;;;;;;7.80;7.00;;;;;;;;;;5010267;28;20022;-55
2023/06/09 09:05:09;;;;;;;11.13;7.13;;;;;;;;;;5009282;28;20516;-55
2023/06/09 09:07:35;;;;;;;9.00;7.18;;;;;;;;;;5022547;28;20056;-52
2023/06/09 09:10:01;;;;;;;8.93;7.40;;;;;;;;;;5023077;28;20076;-52
2023/06/09 09:12:26;;;;;;;8.23;6.63;;;;;;;;;;5031258;28;20030;-54
2023/06/09 09:14:52;;;;;;;9.40;6.78;;;;;;;;;;5024731;28;20029;-52
2023/06/09 09:17:17;;;;;;;11.02;6.38;;;;;;;;;;5030573;28;20440;-52
2023/06/09 09:19:51;;;;;;;8.10;6.30;;;;;;;;;;5026469;28;20466;-56
2023/06/09 09:22:17;;;;;;;8.07;6.53;;;;;;;;;;5031368;28;20036;-52
2023/06/09 09:24:46;;;;;;;9.52;6.78;;;;;;;;;;5030874;28;20037;-54
2023/06/09 09:27:21;;;;;;;8.15;6.50;;;;;;;;;;5021328;28;20492;-53
2023/06/09 09:29:46;;;;;;;8.05;6.47;;;;;;;;;;5015130;28;20037;-54
2023/06/09 09:32:13;;;;;;;8.55;6.22;;;;;;;;;;5015422;28;20379;-53
2023/06/09 09:34:42;;;;;;;6.55;5.88;;;;;;;;;;5019131;28;20029;-54
2023/06/09 09:37:13;;;;;;;9.82;6.47;;;;;;;;;;5014070;28;20041;-53
2023/06/09 09:39:52;;;;;;;8.77;6.55;;;;;;;;;;5011612;28;20049;-54
2023/06/09 09:42:18;;;;;;;7.72;6.28;;;;;;;;;;5014252;28;20116;-53
2023/06/09 09:44:46;;;;;;;7.45;6.25;;;;;;;;;;5017762;28;20108;-53
2023/06/09 09:47:14;;;;;;;11.25;5.80;;;;;;;;;;5033652;28;20048;-53
2023/06/09 09:49:58;;;;;;;7.38;6.20;;;;;;;;;;5034868;28;20030;-53
2023/06/09 09:52:32;;;;;;;10.10;6.18;;;;;;;;;;5027061;28;20026;-54
2023/06/09 09:55:08;;;;;;;7.93;5.80;;;;;;;;;;5009090;28;20034;-53
2023/06/09 09:57:35;;;;;;;8.68;5.90;;;;;;;;;;5004703;28;20372;-54
2023/06/09 10:00:08;;;;;;;7.35;5.78;;;;;;;;;;5014005;28;20026;-53
2023/06/09 10:02:35;;;;;;;11.23;6.07;;;;;;;;;;5014966;28;20030;-52
2023/06/09 10:05:05;;;;;;;6.90;5.82;;;;;;;;;;5013821;28;20108;-53
2023/06/09 10:07:37;;;;;;;8.90;5.53;;;;;;;;;;5015929;28;20045;-55
2023/06/09 10:10:03;;;;;;;11.73;5.80;;;;;;;;;;5013216;28;20287;-52
2023/06/09 10:12:30;;;;;;;7.82;5.95;;;;;;;;;;5008352;28;20049;-55
2023/06/09 10:14:56;;;;;;;10.90;5.70;;;;;;;;;;4992705;28;20038;-56
2023/06/09 10:17:25;;;;;;;9.00;5.97;;;;;;;;;;5000446;28;20029;-52
2023/06/09 10:19:52;;;;;;;8.63;5.93;;;;;;;;;;5013631;28;20463;-55
2023/06/09 10:22:21;;;;;;;7.65;5.55;;;;;;;;;;5013995;28;20030;-56
2023/06/09 10:24:47;;;;;;;6.57;5.35;;;;;;;;;;5019485;28;20105;-56
2023/06/09 10:27:15;;;;;;;8.70;5.30;;;;;;;;;;5019784;28;20129;-52
2023/06/09 10:29:41;;;;;;;6.30;5.70;;;;;;;;;;5014368;28;20034;-50
2023/06/09 10:32:10;;;;;;;7.38;5.50;;;;;;;;;;4993853;28;20030;-50
2023/06/09 10:34:38;;;;;;;6.63;5.53;;;;;;;;;;4994507;28;20061;-51
2023/06/09 10:37:04;;;;;;;7.57;5.78;;;;;;;;;;4993556;28;20067;-49
2023/06/09 10:39:47;;;;;;;6.45;5.38;;;;;;;;;;4994294;28;20054;-50
2023/06/09 10:42:36;;;;;;;6.55;5.72;;;;;;;;;;5013728;28;20026;-51
2023/06/09 10:45:11;;;;;;;7.60;5.55;;;;;;;;;;5012787;28;20030;-51
2023/06/09 10:47:45;;;;;;;8.65;5.70;;;;;;;;;;5013539;28;20022;-53
2023/06/09 10:50:22;;;;;;;7.57;5.65;;;;;;;;;;5013750;28;20026;-53
2023/06/09 10:52:55;;;;;;;8.60;5.50;;;;;;;;;;5011806;28;20030;-57
2023/06/09 10:55:22;;;;;;;7.75;5.20;;;;;;;;;;5013694;28;20030;-51
2023/06/09 10:57:50;;;;;;;6.57;5.25;;;;;;;;;;5012915;28;20064;-57
2023/06/09 11:00:16;;;;;;;9.98;5.50;;;;;;;;;;5013600;28;20026;-56
2023/06/09 11:02:46;;;;;;;7.15;5.20;;;;;;;;;;5013654;28;20034;-50
2023/06/09 11:05:12;;;;;;;;;;;;;;;;;;5013371;28;20096;-53
2023/06/09 11:07:43;;;;;;;7.40;5.28;;;;;;;;;;5013407;28;20321;-51
2023/06/09 11:10:10;;;;;;;6.90;5.40;;;;;;;;;;5012392;28;20082;-49
2023/06/09 11:12:36;;;;;;;10.77;5.00;;;;;;;;;;5013378;28;20054;-51
2023/06/09 11:15:03;;;;;;;8.20;5.28;;;;;;;;;;5004770;28;20054;-54
2023/06/09 11:17:42;;;;;;;6.63;5.47;;;;;;;;;;5006971;28;20037;-53
2023/06/09 11:20:11;;;;;;;8.65;5.30;;;;;;;;;;5005224;28;20026;-52
2023/06/09 11:22:44;;;;;;;6.60;5.00;;;;;;;;;;5006912;28;20050;-56
2023/06/09 11:25:15;;;;;;;8.45;5.05;;;;;;;;;;5012262;28;20616;-54
2023/06/09 11:27:41;;;;;;;5.82;4.90;;;;;;;;;;5000099;28;20026;-56
2023/06/09 11:30:18;;;;;;;8.95;5.03;;;;;;;;;;4997668;28;20629;-55
2023/06/09 11:32:51;;;;;;;6.47;5.07;;;;;;;;;;4994955;28;20056;-54
2023/06/09 11:35:25;;;;;;;6.32;4.80;;;;;;;;;;4998775;28;20033;-52
2023/06/09 11:37:58;;;;;;;6.65;4.80;;;;;;;;;;5000410;28;20040;-57
2023/06/09 11:40:25;;;;;;;9.07;4.50;;;;;;;;;;5001587;28;20051;-56
2023/06/09 11:42:51;;;;;;;7.20;4.43;;;;;;;;;;5007050;28;20037;-56
2023/06/09 11:45:17;;;;;;;9.40;4.78;;;;;;;;;;5010243;28;20438;-56
2023/06/09 11:47:44;;;;;;;5.82;4.70;;;;;;;;;;5011390;28;20110;-50
2023/06/09 11:50:12;;;;;;;5.57;4.35;;;;;;;;;;5009185;28;20612;-56
2023/06/09 11:52:41;;;;;;;5.72;4.57;;;;;;;;;;5005982;28;20503;-55
2023/06/09 11:55:07;;;;;;;6.95;4.70;;;;;;;;;;5008475;28;20065;-54
2023/06/09 11:57:34;;;;;;;6.03;4.60;;;;;;;;;;5007345;28;20765;-55
2023/06/09 12:00:09;;;;;;;8.52;4.95;;;;;;;;;;5000491;28;20109;-58
2023/06/09 12:02:35;;;;;;;9.85;4.90;;;;;;;;;;5012598;28;20061;-57
2023/06/09 12:05:00;;;;;;;5.85;4.35;;;;;;;;;;4997315;28;20035;-55
2023/06/09 12:07:26;;;;;;;6.97;4.80;;;;;;;;;;5014698;28;20453;-58
2023/06/09 12:09:56;;;;;;;6.45;4.85;;;;;;;;;;5009198;28;20509;-58
2023/06/09 12:12:21;;;;;;;7.00;4.60;;;;;;;;;;5005122;28;20084;-56
2023/06/09 12:14:48;;;;;;;7.03;4.28;;;;;;;;;;4993971;28;20038;-58
2023/06/09 12:17:13;;;;;;;7.78;4.80;;;;;;;;;;5011431;28;20211;-55
2023/06/09 12:19:39;;;;;;;7.80;4.60;;;;;;;;;;5006688;28;20470;-52
2023/06/09 12:22:04;;;;;;;7.93;4.53;;;;;;;;;;5007970;28;20044;-53
2023/06/09 12:24:31;;;;;;;6.63;4.22;;;;;;;;;;5011119;28;20072;-57
2023/06/09 12:27:08;;;;;;;6.30;4.63;;;;;;;;;;5004450;28;20030;-58
2023/06/09 12:29:34;;;;;;;6.80;4.75;;;;;;;;;;5007052;28;20041;-58
2023/06/09 12:31:59;;;;;;;6.63;4.60;;;;;;;;;;5009583;28;20041;-57
2023/06/09 12:34:28;;;;;;;5.85;5.10;;;;;;;;;;5000942;28;20104;-57
2023/06/09 12:36:54;;;;;;;6.90;5.00;;;;;;;;;;5011526;28;20049;-57
2023/06/09 12:39:21;;;;;;;7.80;5.03;;;;;;;;;;5011590;28;20486;-58
2023/06/09 12:41:46;;;;;;;8.95;4.90;;;;;;;;;;5012025;28;20030;-57
2023/06/09 12:44:24;;;;;;;10.82;4.70;;;;;;;;;;5011565;28;20037;-59
2023/06/09 12:46:55;;;;;;;6.82;4.68;;;;;;;;;;5015372;28;20029;-57
2023/06/09 12:49:31;;;;;;;7.97;4.80;;;;;;;;;;5031781;28;20040;-58
2023/06/09 12:51:58;;;;;;;7.82;4.90;;;;;;;;;;5011646;28;20056;-58
2023/06/09 12:54:26;;;;;;;7.53;4.90;;;;;;;;;;5017180;28;20366;-56
2023/06/09 12:56:54;;;;;;;5.07;4.57;;;;;;;;;;5023197;28;20041;-57
2023/06/09 12:59:19;;;;;;;5.50;4.57;;;;;;;;;;5007392;28;20057;-56
2023/06/09 13:01:47;;;;;;;6.10;5.03;;;;;;;;;;5015678;28;20053;-56
2023/06/09 13:04:15;;;;;;;8.55;4.90;;;;;;;;;;5032313;28;20657;-54
2023/06/09 13:06:40;;;;;;;6.43;4.82;;;;;;;;;;5033025;28;20182;-58
2023/06/09 13:09:06;;;;;;;9.10;5.00;;;;;;;;;;5034568;28;20493;-58
2023/06/09 13:11:31;;;;;;;10.23;4.60;;;;;;;;;;5011963;28;20037;-58
2023/06/09 13:13:56;;;;;;;6.30;4.63;;;;;;;;;;5011092;28;20040;-57
2023/06/09 13:16:22;;;;;;;7.13;4.80;;;;;;;;;;4995990;28;20124;-57
2023/06/09 13:18:47;;;;;;;7.70;4.55;;;;;;;;;;4996041;28;20038;-56
2023/06/09 13:21:13;;;;;;;9.02;5.05;;;;;;;;;;4994698;28;20065;-55
2023/06/09 13:23:38;;;;;;;9.50;5.03;;;;;;;;;;4994762;28;20376;-52
2023/06/09 13:26:03;;;;;;;7.13;4.57;;;;;;;;;;4994893;28;20037;-55
2023/06/09 13:28:29;;;;;;;7.28;5.10;;;;;;;;;;5015618;28;20053;-54
2023/06/09 13:30:56;;;;;;;8.02;4.70;;;;;;;;;;5034715;28;20108;-57
2023/06/09 13:33:21;;;;;;;6.07;4.50;;;;;;;;;;5019864;28;20025;-55
2023/06/09 13:35:47;;;;;;;6.63;4.78;;;;;;;;;;5014288;28;20057;-56
2023/06/09 13:38:15;;;;;;;7.93;4.65;;;;;;;;;;5014207;28;20025;-57
2023/06/09 13:40:44;;;;;;;9.00;5.38;;;;;;;;;;5014897;28;20096;-57
2023/06/09 13:43:12;;;;;;;7.68;5.15;;;;;;;;;;5002845;28;20471;-56
2023/06/09 13:45:39;;;;;;;8.73;4.97;;;;;;;;;;5014553;28;20394;-57
2023/06/09 13:48:05;;;;;;;6.18;4.95;;;;;;;;;;5017303;28;20075;-56
2023/06/09 13:50:30;;;;;;;9.85;5.28;;;;;;;;;;5021198;28;20030;-56
2023/06/09 13:52:56;;;;;;;7.65;5.10;;;;;;;;;;5016102;28;20078;-57
2023/06/09 13:55:22;;;;;;;7.22;5.22;;;;;;;;;;5014215;28;20045;-56
2023/06/09 13:57:47;;;;;;;6.70;5.30;;;;;;;;;;5017395;28;20041;-55
2023/06/09 14:00:13;;;;;;;9.18;5.25;;;;;;;;;;5008048;28;20143;-55
2023/06/09 14:02:39;;;;;;;10.82;5.22;;;;;;;;;;5009913;28;20467;-56
2023/06/09 14:05:10;;;;;;;6.63;5.20;;;;;;;;;;5012260;28;20030;-56
2023/06/09 14:07:36;;;;;;;7.82;5.57;;;;;;;;;;5002636;28;20018;-56
2023/06/09 14:10:03;;;;;;;8.27;5.20;;;;;;;;;;5013910;28;20108;-52
2023/06/09 14:12:30;;;;;;;7.22;5.10;;;;;;;;;;4995234;28;20380;-58
2023/06/09 14:14:55;;;;;;;7.22;5.70;;;;;;;;;;5012229;28;20040;-55
2023/06/09 14:17:21;;;;;;;7.38;5.22;;;;;;;;;;5022167;28;20042;-56
2023/06/09 14:19:46;;;;;;;10.77;5.50;;;;;;;;;;5003697;28;20034;-58
2023/06/09 14:22:12;;;;;;;6.57;5.35;;;;;;;;;;5011307;28;20030;-58
2023/06/09 14:24:37;;;;;;;6.47;5.20;;;;;;;;;;5016702;28;20033;-58
2023/06/09 14:27:03;;;;;;;9.98;5.97;;;;;;;;;;5010767;28;20044;-59
2023/06/09 14:29:29;;;;;;;6.85;5.50;;;;;;;;;;5008235;28;20037;-52
2023/06/09 14:31:55;;;;;;;7.13;5.05;;;;;;;;;;5014178;28;20026;-53
2023/06/09 14:34:20;;;;;;;9.90;5.63;;;;;;;;;;5013349;28;20055;-52